Terminal Aerodrome Forecast
Issued by NWS

Home | Current Version | Previous Version | Text Only | Print | Product List | Glossary On
Versions: 1 2 3 4 5 6 7 8 9 10 11 12 13
000
FTUS43 KIND 281100 RRA
TAFBMG
TAF
KBMG 281145Z 2812/0112 10006KT P6SM OVC100
     FM281800 11007KT P6SM SCT035 OVC060
     FM282300 10005KT 2SM -SN BR OVC015
     FM010300 14004KT 1SM -SN BR OVC005
      AMD LTD TO CLD VIS AND WIND TIL 281400=

USA.gov is the U.S. government's official web portal to all federal, state and local government web resources and services.